Aérodrome :
LOGIN :

S'inscrire | Disclaimer

   EN    FR    IT 

 










Légende :    VFR   VFR Marginal   IFR   IFR Intensif   IFR Très Intensif
Visi : 
Plafond : 
>= 8 km
>= 3000ft
5 à 8 km
1000 à 3000 ft
1500m à 5 km
500 à 1000 ft
800 à 1500m
200 à 500 ft
< 800m
< 200 ft
Symboles :   Orages  Brouillard  Fortes neiges  Fortes précipitations  Vent > 20 kt
SIGMETs :   Divers  Orages  Givrage  Turbulence  Onde Orograph.  Cendres Volcan.







- Altitude de l'aérodrome : 32 ft
- Code IATA : LKZ


EGUL - RAF Lakenheath

DERNIER METAR :
  • 250634Z AUTO 06003KT 3000 BR OVC005 13/12 A3001 RMK AO2 CIG 003 RWY24 SLP166 $

METARs EXPIRÉS :
  • 250628Z AUTO 00000KT 3200 BR OVC005 13/12 A3001 RMK AO2 CIG 003 RWY24 SLP166 $
  • 250624Z AUTO 00000KT 3200 BR OVC004 13/12 A3001 RMK AO2 SLP166 $
  • 250556Z AUTO 00000KT 4000 BR OVC004 13/12 A3001 RMK AO2 RAE10DZB10E15RAB15E32DZB32E37 SLP166 P0000 60005 T01290116 10129 20119 53000 $
  • 250537Z AUTO 00000KT 4000 BR OVC004 13/12 A3000 RMK AO2 RAE10DZB10E15RAB15E32DZB32E37 SLP162 $
  • 250456Z AUTO 00000KT 4000 -RA BR OVC003 12/11 A3000 RMK AO2 SLP162 P0002 T01240113 $
  • 250439Z AUTO 00000KT 4400 -RA BR OVC004 12/11 A3000 RMK AO2 VIS 4400V6000 CIG 003 RWY24 SLP162 $
  • 250427Z AUTO 00000KT 6000 -RA BR OVC004 12/11 A3000 RMK AO2 CIG 003 RWY24 SLP162 $
  • 250415Z AUTO 35004KT 6000 -RA BR OVC005 12/11 A3000 RMK AO2 VIS 4400 RWY24 CIG 003 RWY24 SLP162 $
  • 250356Z AUTO 35006KT 6000 -RA BR OVC006 12/11 A3000 RMK AO2 VIS 4400 RWY24 RAE17DZB17E25RAB25 OVC V BKN CIG 005 RWY24 SLP162 P0002 T01200111 $

TAF AMD TAF EGUL
Valide du 24 à 18h jusqu'au 25 à 18h UTC


241826Z 2418/2518 07012KT 8000 -SHRA FEW095 QNH3009INS
BECMG 2419/2420 03009KT 8000 -SHRA BKN010 610909 QNH3009INS
BECMG 2422/2423 02009KT 6000 -SHRA BKN007 610909 QNH3004INS
TEMPO 2422/2502 6000 -TSRA BKN007CB
BECMG 2510/2511 03006KT 6000 -TSRA BKN010CB QNH3006INS
BECMG 2514/2515 08009KT 9999 NSW BKN007 QNH3009INS TX24/2516Z TN11/2504Z LAST NO AMDS AFT 2418 NEXT 2704
Pas de NOTAMs connus pour ce terrain.



MET'MAP, la Météo Aéronautique d'un coup d'oeil ! - Copyright ORBIFLY Décembre 2007 - Disclaimer

ORBIFLY MET'MAP TEAM :

Programmation & Développement : Alexandra Zaïnal
Conception & Développement : Baudouin d'Aumeries
Co-Programmation & Développement : Marc-Olivier Méhu
Soutien technique & logistique : Manuel Goepfert

Contact : metmap@orbifly.com




SOURCES & CREDITS :

   NOAA